sensor_id;sensor_type;location;lat;lon;timestamp;pressure;altitude;pressure_sealevel;temperature;humidity
11542;BME280;5827;49.482;7.716;2023-04-03T00:00:44;99780.94;;;5.39;73.95
11542;BME280;5827;49.482;7.716;2023-04-03T00:02:45;99775.59;;;5.39;73.99
11542;BME280;5827;49.482;7.716;2023-04-03T00:04:47;99776.25;;;5.56;75.43
11542;BME280;5827;49.482;7.716;2023-04-03T00:06:48;99775.06;;;5.29;73.27
11542;BME280;5827;49.482;7.716;2023-04-03T00:08:50;99769.41;;;5.32;73.86
11542;BME280;5827;49.482;7.716;2023-04-03T00:10:52;99771.22;;;5.17;72.38
11542;BME280;5827;49.482;7.716;2023-04-03T00:12:54;99774.16;;;5.22;73.72
11542;BME280;5827;49.482;7.716;2023-04-03T00:14:57;99772.97;;;5.24;73.82
11542;BME280;5827;49.482;7.716;2023-04-03T00:16:58;99768.75;;;5.15;74.58
11542;BME280;5827;49.482;7.716;2023-04-03T00:19:00;99777.16;;;4.89;74.35
11542;BME280;5827;49.482;7.716;2023-04-03T00:21:01;99775.78;;;4.78;74.53
11542;BME280;5827;49.482;7.716;2023-04-03T00:23:03;99778.28;;;5.09;74.44
11542;BME280;5827;49.482;7.716;2023-04-03T00:25:06;99780.28;;;4.93;75.92
11542;BME280;5827;49.482;7.716;2023-04-03T00:27:07;99780.81;;;4.88;73.88
11542;BME280;5827;49.482;7.716;2023-04-03T00:29:09;99783.13;;;4.91;74.60
11542;BME280;5827;49.482;7.716;2023-04-03T00:31:14;99773.22;;;4.85;74.89
11542;BME280;5827;49.482;7.716;2023-04-03T00:33:15;99776.31;;;4.74;74.53
11542;BME280;5827;49.482;7.716;2023-04-03T00:35:17;99780.75;;;4.96;75.35
11542;BME280;5827;49.482;7.716;2023-04-03T00:37:20;99779.53;;;4.84;74.20
11542;BME280;5827;49.482;7.716;2023-04-03T00:39:21;99778.63;;;4.77;76.28
11542;BME280;5827;49.482;7.716;2023-04-03T00:41:23;99784.34;;;4.66;75.44
11542;BME280;5827;49.482;7.716;2023-04-03T00:43:26;99778.78;;;4.75;76.27
11542;BME280;5827;49.482;7.716;2023-04-03T00:45:32;99783.72;;;4.64;76.28
11542;BME280;5827;49.482;7.716;2023-04-03T00:47:36;99769.25;;;4.66;77.45
11542;BME280;5827;49.482;7.716;2023-04-03T00:49:40;99774.84;;;4.71;77.73
11542;BME280;5827;49.482;7.716;2023-04-03T00:51:42;99780.31;;;4.55;77.80
11542;BME280;5827;49.482;7.716;2023-04-03T00:53:46;99781.22;;;4.62;77.93
11542;BME280;5827;49.482;7.716;2023-04-03T00:55:49;99774.28;;;4.23;79.00
11542;BME280;5827;49.482;7.716;2023-04-03T00:57:52;99775.25;;;4.45;78.24
11542;BME280;5827;49.482;7.716;2023-04-03T00:59:59;99775.53;;;4.50;79.06
11542;BME280;5827;49.482;7.716;2023-04-03T01:02:02;99767.59;;;4.50;78.99
11542;BME280;5827;49.482;7.716;2023-04-03T01:04:24;99760.03;;;4.39;80.89
11542;BME280;5827;49.482;7.716;2023-04-03T01:06:28;99761.94;;;4.30;82.54
11542;BME280;5827;49.482;7.716;2023-04-03T01:08:33;99751.31;;;4.30;82.13
11542;BME280;5827;49.482;7.716;2023-04-03T01:10:35;99748.38;;;4.25;82.80
11542;BME280;5827;49.482;7.716;2023-04-03T01:12:39;99746.09;;;4.22;82.97
11542;BME280;5827;49.482;7.716;2023-04-03T01:14:41;99739.91;;;4.07;83.62
11542;BME280;5827;49.482;7.716;2023-04-03T01:16:42;99745.75;;;4.02;84.71
11542;BME280;5827;49.482;7.716;2023-04-03T01:18:45;99737.34;;;3.99;85.09
11542;BME280;5827;49.482;7.716;2023-04-03T01:21:30;99735.56;;;3.91;86.35
11542;BME280;5827;49.482;7.716;2023-04-03T01:23:47;99738.91;;;3.85;87.19
11542;BME280;5827;49.482;7.716;2023-04-03T01:25:55;99724.81;;;3.85;87.95
11542;BME280;5827;49.482;7.716;2023-04-03T01:27:57;99736.34;;;3.69;87.41
11542;BME280;5827;49.482;7.716;2023-04-03T01:29:58;99737.47;;;3.43;86.90
11542;BME280;5827;49.482;7.716;2023-04-03T01:32:03;99733.16;;;3.50;88.38
11542;BME280;5827;49.482;7.716;2023-04-03T01:34:04;99730.19;;;3.45;89.15
11542;BME280;5827;49.482;7.716;2023-04-03T01:36:07;99735.69;;;3.44;88.46
11542;BME280;5827;49.482;7.716;2023-04-03T01:38:08;99735.81;;;3.50;87.24
11542;BME280;5827;49.482;7.716;2023-04-03T01:40:11;99729.50;;;3.51;88.62
11542;BME280;5827;49.482;7.716;2023-04-03T01:42:12;99730.97;;;3.54;87.88
11542;BME280;5827;49.482;7.716;2023-04-03T01:44:14;99733.44;;;3.55;87.23
11542;BME280;5827;49.482;7.716;2023-04-03T01:46:16;99739.09;;;3.52;86.96
11542;BME280;5827;49.482;7.716;2023-04-03T01:48:19;99735.47;;;3.53;87.84
11542;BME280;5827;49.482;7.716;2023-04-03T01:50:21;99734.16;;;3.49;87.40
11542;BME280;5827;49.482;7.716;2023-04-03T01:52:23;99742.75;;;3.51;87.12
11542;BME280;5827;49.482;7.716;2023-04-03T01:54:24;99739.47;;;3.49;87.00
11542;BME280;5827;49.482;7.716;2023-04-03T01:56:26;99739.94;;;3.53;87.59
11542;BME280;5827;49.482;7.716;2023-04-03T01:58:27;99736.81;;;3.49;87.17
11542;BME280;5827;49.482;7.716;2023-04-03T02:00:29;99734.50;;;3.46;88.02
11542;BME280;5827;49.482;7.716;2023-04-03T02:02:31;99734.06;;;3.35;87.81
11542;BME280;5827;49.482;7.716;2023-04-03T02:04:34;99736.19;;;3.39;88.48
11542;BME280;5827;49.482;7.716;2023-04-03T02:06:35;99732.41;;;3.34;88.43
11542;BME280;5827;49.482;7.716;2023-04-03T02:08:37;99727.28;;;3.32;89.59
11542;BME280;5827;49.482;7.716;2023-04-03T02:10:39;99724.97;;;3.29;89.36
11542;BME280;5827;49.482;7.716;2023-04-03T02:12:40;99723.66;;;3.25;89.40
11542;BME280;5827;49.482;7.716;2023-04-03T02:14:42;99730.69;;;3.10;89.06
11542;BME280;5827;49.482;7.716;2023-04-03T02:16:44;99725.91;;;3.05;89.54
11542;BME280;5827;49.482;7.716;2023-04-03T02:18:45;99722.13;;;2.99;89.56
11542;BME280;5827;49.482;7.716;2023-04-03T02:20:48;99719.59;;;3.06;89.80
11542;BME280;5827;49.482;7.716;2023-04-03T02:22:50;99715.31;;;3.05;89.60
11542;BME280;5827;49.482;7.716;2023-04-03T02:24:51;99720.09;;;3.10;90.37
11542;BME280;5827;49.482;7.716;2023-04-03T02:26:53;99714.31;;;3.06;89.92
11542;BME280;5827;49.482;7.716;2023-04-03T02:28:54;99710.19;;;3.03;90.45
11542;BME280;5827;49.482;7.716;2023-04-03T02:30:56;99717.44;;;3.10;90.30
11542;BME280;5827;49.482;7.716;2023-04-03T02:32:56;99704.03;;;3.11;91.35
11542;BME280;5827;49.482;7.716;2023-04-03T02:34:58;99714.50;;;3.04;91.38
11542;BME280;5827;49.482;7.716;2023-04-03T02:37:01;99712.88;;;2.95;91.22
11542;BME280;5827;49.482;7.716;2023-04-03T02:39:03;99709.41;;;2.95;91.80
11542;BME280;5827;49.482;7.716;2023-04-03T02:41:07;99712.44;;;2.75;92.29
11542;BME280;5827;49.482;7.716;2023-04-03T02:43:09;99715.22;;;2.82;93.65
11542;BME280;5827;49.482;7.716;2023-04-03T02:45:10;99709.75;;;2.84;93.65
11542;BME280;5827;49.482;7.716;2023-04-03T02:47:11;99716.56;;;2.78;93.16
11542;BME280;5827;49.482;7.716;2023-04-03T02:49:13;99714.28;;;2.67;94.44
11542;BME280;5827;49.482;7.716;2023-04-03T02:51:15;99710.97;;;2.65;95.30
11542;BME280;5827;49.482;7.716;2023-04-03T02:53:18;99710.50;;;2.45;95.32
11542;BME280;5827;49.482;7.716;2023-04-03T02:55:20;99711.84;;;2.49;96.17
11542;BME280;5827;49.482;7.716;2023-04-03T02:57:21;99708.69;;;2.53;96.55
11542;BME280;5827;49.482;7.716;2023-04-03T02:59:23;99713.31;;;2.51;95.17
11542;BME280;5827;49.482;7.716;2023-04-03T03:01:24;99715.47;;;2.48;95.34
11542;BME280;5827;49.482;7.716;2023-04-03T03:03:28;99711.34;;;2.37;96.00
11542;BME280;5827;49.482;7.716;2023-04-03T03:05:30;99715.97;;;2.35;95.30
11542;BME280;5827;49.482;7.716;2023-04-03T03:07:32;99714.34;;;2.34;96.31
11542;BME280;5827;49.482;7.716;2023-04-03T03:09:35;99710.19;;;2.40;96.03
11542;BME280;5827;49.482;7.716;2023-04-03T03:11:36;99710.50;;;2.37;95.78
11542;BME280;5827;49.482;7.716;2023-04-03T03:13:38;99711.50;;;2.19;96.45
11542;BME280;5827;49.482;7.716;2023-04-03T03:15:40;99703.09;;;2.24;97.19
11542;BME280;5827;49.482;7.716;2023-04-03T03:17:41;99708.53;;;2.14;97.66
11542;BME280;5827;49.482;7.716;2023-04-03T03:19:43;99711.50;;;2.19;98.02
11542;BME280;5827;49.482;7.716;2023-04-03T03:21:45;99711.69;;;1.93;97.12
11542;BME280;5827;49.482;7.716;2023-04-03T03:23:47;99704.75;;;2.09;98.57
11542;BME280;5827;49.482;7.716;2023-04-03T03:25:54;99702.44;;;2.14;97.80
11542;BME280;5827;49.482;7.716;2023-04-03T03:27:56;99703.75;;;2.01;98.16
11542;BME280;5827;49.482;7.716;2023-04-03T03:29:57;99712.03;;;1.98;97.25
11542;BME280;5827;49.482;7.716;2023-04-03T03:31:59;99712.34;;;2.03;98.05
11542;BME280;5827;49.482;7.716;2023-04-03T03:34:00;99710.34;;;2.06;97.88
11542;BME280;5827;49.482;7.716;2023-04-03T03:36:02;99711.03;;;2.08;97.96
11542;BME280;5827;49.482;7.716;2023-04-03T03:38:04;99713.69;;;2.08;98.89
11542;BME280;5827;49.482;7.716;2023-04-03T03:40:06;99706.06;;;1.96;98.23
11542;BME280;5827;49.482;7.716;2023-04-03T03:42:09;99705.91;;;1.98;98.62
11542;BME280;5827;49.482;7.716;2023-04-03T03:44:11;99702.78;;;2.02;98.79
11542;BME280;5827;49.482;7.716;2023-04-03T03:46:13;99708.06;;;2.02;98.99
11542;BME280;5827;49.482;7.716;2023-04-03T03:48:14;99705.03;;;1.65;98.40
11542;BME280;5827;49.482;7.716;2023-04-03T03:50:16;99706.06;;;1.72;99.93
11542;BME280;5827;49.482;7.716;2023-04-03T03:52:17;99707.88;;;1.71;100.00
11542;BME280;5827;49.482;7.716;2023-04-03T03:54:19;99705.91;;;1.82;100.00
11542;BME280;5827;49.482;7.716;2023-04-03T03:56:20;99707.69;;;1.73;100.00
11542;BME280;5827;49.482;7.716;2023-04-03T03:58:23;99703.59;;;1.70;100.00
11542;BME280;5827;49.482;7.716;2023-04-03T04:00:25;99704.06;;;1.82;100.00
11542;BME280;5827;49.482;7.716;2023-04-03T04:02:26;99704.75;;;1.84;100.00
11542;BME280;5827;49.482;7.716;2023-04-03T04:04:27;99714.66;;;1.90;99.79
11542;BME280;5827;49.482;7.716;2023-04-03T04:06:29;99716.00;;;1.94;99.50
11542;BME280;5827;49.482;7.716;2023-04-03T04:08:30;99716.00;;;1.94;99.35
11542;BME280;5827;49.482;7.716;2023-04-03T04:10:32;99717.47;;;1.89;98.68
11542;BME280;5827;49.482;7.716;2023-04-03T04:12:34;99714.97;;;1.87;98.96
11542;BME280;5827;49.482;7.716;2023-04-03T04:14:37;99723.41;;;1.99;98.64
11542;BME280;5827;49.482;7.716;2023-04-03T04:16:38;99715.31;;;2.00;98.61
11542;BME280;5827;49.482;7.716;2023-04-03T04:18:40;99717.97;;;2.00;98.66
11542;BME280;5827;49.482;7.716;2023-04-03T04:20:42;99719.13;;;1.98;98.75
11542;BME280;5827;49.482;7.716;2023-04-03T04:22:43;99717.31;;;2.07;98.51
11542;BME280;5827;49.482;7.716;2023-04-03T04:24:44;99716.66;;;2.04;98.98
11542;BME280;5827;49.482;7.716;2023-04-03T04:26:46;99719.97;;;2.07;97.99
11542;BME280;5827;49.482;7.716;2023-04-03T04:28:47;99721.44;;;2.01;96.84
11542;BME280;5827;49.482;7.716;2023-04-03T04:30:51;99723.25;;;2.00;97.68
11542;BME280;5827;49.482;7.716;2023-04-03T04:32:52;99719.59;;;2.01;97.46
11542;BME280;5827;49.482;7.716;2023-04-03T04:34:54;99712.34;;;1.87;97.68
11542;BME280;5827;49.482;7.716;2023-04-03T04:36:55;99711.22;;;1.98;98.03
11542;BME280;5827;49.482;7.716;2023-04-03T04:38:57;99713.16;;;1.96;97.74
11542;BME280;5827;49.482;7.716;2023-04-03T04:40:58;99715.00;;;1.95;97.73
11542;BME280;5827;49.482;7.716;2023-04-03T04:43:00;99710.38;;;1.89;98.75
11542;BME280;5827;49.482;7.716;2023-04-03T04:45:01;99711.03;;;1.91;98.37
11542;BME280;5827;49.482;7.716;2023-04-03T04:47:04;99720.59;;;1.92;97.65
11542;BME280;5827;49.482;7.716;2023-04-03T04:49:06;99719.63;;;1.93;98.36
11542;BME280;5827;49.482;7.716;2023-04-03T04:51:08;99717.63;;;1.95;97.59
11542;BME280;5827;49.482;7.716;2023-04-03T04:53:09;99714.00;;;1.96;97.61
11542;BME280;5827;49.482;7.716;2023-04-03T04:55:11;99724.22;;;1.91;97.11
11542;BME280;5827;49.482;7.716;2023-04-03T04:57:12;99714.81;;;1.81;97.75
11542;BME280;5827;49.482;7.716;2023-04-03T04:59:13;99723.75;;;1.80;97.96
11542;BME280;5827;49.482;7.716;2023-04-03T05:01:15;99723.88;;;1.78;98.08
11542;BME280;5827;49.482;7.716;2023-04-03T05:03:18;99728.00;;;1.72;97.54
11542;BME280;5827;49.482;7.716;2023-04-03T05:05:19;99725.38;;;1.72;98.20
11542;BME280;5827;49.482;7.716;2023-04-03T05:07:21;99727.53;;;1.77;98.50
11542;BME280;5827;49.482;7.716;2023-04-03T05:09:22;99727.38;;;1.70;98.41
11542;BME280;5827;49.482;7.716;2023-04-03T05:11:24;99739.25;;;1.74;99.36
11542;BME280;5827;49.482;7.716;2023-04-03T05:13:25;99737.59;;;1.82;97.69
11542;BME280;5827;49.482;7.716;2023-04-03T05:15:27;99737.44;;;1.75;98.60
11542;BME280;5827;49.482;7.716;2023-04-03T05:17:28;99739.59;;;1.96;97.67
11542;BME280;5827;49.482;7.716;2023-04-03T05:19:31;99749.53;;;1.94;96.49
11542;BME280;5827;49.482;7.716;2023-04-03T05:21:32;99749.84;;;1.91;96.21
11542;BME280;5827;49.482;7.716;2023-04-03T05:23:34;99744.25;;;2.02;96.79
11542;BME280;5827;49.482;7.716;2023-04-03T05:25:37;99745.53;;;1.90;97.14
11542;BME280;5827;49.482;7.716;2023-04-03T05:27:38;99751.63;;;1.82;98.02
11542;BME280;5827;49.482;7.716;2023-04-03T05:29:40;99748.84;;;1.84;97.79
11542;BME280;5827;49.482;7.716;2023-04-03T05:31:43;99743.56;;;1.84;98.12
11542;BME280;5827;49.482;7.716;2023-04-03T05:33:45;99749.81;;;1.83;98.53
11542;BME280;5827;49.482;7.716;2023-04-03T05:35:48;99746.19;;;1.92;98.02
11542;BME280;5827;49.482;7.716;2023-04-03T05:37:50;99751.34;;;1.93;97.98
11542;BME280;5827;49.482;7.716;2023-04-03T05:39:52;99752.00;;;1.95;97.59
11542;BME280;5827;49.482;7.716;2023-04-03T05:41:53;99760.75;;;2.04;98.10
11542;BME280;5827;49.482;7.716;2023-04-03T05:43:55;99748.19;;;2.06;98.03
11542;BME280;5827;49.482;7.716;2023-04-03T05:45:56;99756.31;;;2.13;96.81
11542;BME280;5827;49.482;7.716;2023-04-03T05:47:58;99763.56;;;2.19;97.44
11542;BME280;5827;49.482;7.716;2023-04-03T05:50:00;99768.53;;;2.22;96.48
11542;BME280;5827;49.482;7.716;2023-04-03T05:52:03;99775.63;;;2.38;96.38
11542;BME280;5827;49.482;7.716;2023-04-03T05:54:09;99768.53;;;2.46;96.04
11542;BME280;5827;49.482;7.716;2023-04-03T05:56:13;99770.50;;;2.61;95.22
11542;BME280;5827;49.482;7.716;2023-04-03T05:58:14;99768.84;;;2.68;95.07
11542;BME280;5827;49.482;7.716;2023-04-03T06:00:16;99772.13;;;2.70;95.04
11542;BME280;5827;49.482;7.716;2023-04-03T06:02:20;99778.75;;;2.74;94.31
11542;BME280;5827;49.482;7.716;2023-04-03T06:04:22;99779.88;;;2.88;94.12
11542;BME280;5827;49.482;7.716;2023-04-03T06:06:23;99773.94;;;2.86;93.92
11542;BME280;5827;49.482;7.716;2023-04-03T06:08:27;99780.19;;;2.93;93.96
11542;BME280;5827;49.482;7.716;2023-04-03T06:10:29;99777.41;;;2.94;93.33
11542;BME280;5827;49.482;7.716;2023-04-03T06:12:31;99783.13;;;3.14;94.49
11542;BME280;5827;49.482;7.716;2023-04-03T06:14:33;99783.75;;;3.24;93.65
11542;BME280;5827;49.482;7.716;2023-04-03T06:16:35;99776.28;;;3.28;94.30
11542;BME280;5827;49.482;7.716;2023-04-03T06:18:37;99773.66;;;3.28;93.80
11542;BME280;5827;49.482;7.716;2023-04-03T06:20:39;99784.50;;;3.49;94.53
11542;BME280;5827;49.482;7.716;2023-04-03T06:22:40;99787.44;;;3.54;93.18
11542;BME280;5827;49.482;7.716;2023-04-03T06:24:43;99795.16;;;3.72;93.35
11542;BME280;5827;49.482;7.716;2023-04-03T06:26:45;99794.09;;;3.81;92.62
11542;BME280;5827;49.482;7.716;2023-04-03T06:28:47;99798.44;;;4.05;92.36
11542;BME280;5827;49.482;7.716;2023-04-03T06:30:49;99797.13;;;4.01;92.88
11542;BME280;5827;49.482;7.716;2023-04-03T06:32:50;99793.47;;;4.02;93.33
11542;BME280;5827;49.482;7.716;2023-04-03T06:34:52;99802.72;;;4.06;93.74
11542;BME280;5827;49.482;7.716;2023-04-03T06:36:55;99804.63;;;4.21;93.19
11542;BME280;5827;49.482;7.716;2023-04-03T06:38:57;99806.72;;;4.02;93.86
11542;BME280;5827;49.482;7.716;2023-04-03T06:41:00;99813.25;;;3.92;93.71
11542;BME280;5827;49.482;7.716;2023-04-03T06:43:01;99809.38;;;4.25;93.68
11542;BME280;5827;49.482;7.716;2023-04-03T06:45:04;99816.56;;;4.63;92.11
11542;BME280;5827;49.482;7.716;2023-04-03T06:47:06;99822.00;;;4.46;92.12
11542;BME280;5827;49.482;7.716;2023-04-03T06:49:09;99818.53;;;4.46;92.00
11542;BME280;5827;49.482;7.716;2023-04-03T06:51:17;99816.88;;;4.68;92.75
11542;BME280;5827;49.482;7.716;2023-04-03T06:53:20;99820.66;;;4.50;91.34
11542;BME280;5827;49.482;7.716;2023-04-03T06:55:21;99820.28;;;4.53;91.29
11542;BME280;5827;49.482;7.716;2023-04-03T06:57:24;99823.56;;;4.78;91.41
11542;BME280;5827;49.482;7.716;2023-04-03T06:59:26;99814.03;;;4.69;90.63
11542;BME280;5827;49.482;7.716;2023-04-03T07:01:29;99823.03;;;4.83;90.42
11542;BME280;5827;49.482;7.716;2023-04-03T07:03:31;99816.72;;;4.99;89.12
11542;BME280;5827;49.482;7.716;2023-04-03T07:05:33;99826.75;;;4.74;90.32
11542;BME280;5827;49.482;7.716;2023-04-03T07:07:34;99836.94;;;4.85;89.99
11542;BME280;5827;49.482;7.716;2023-04-03T07:09:37;99826.16;;;4.87;88.05
11542;BME280;5827;49.482;7.716;2023-04-03T07:11:39;99834.16;;;5.01;88.55
11542;BME280;5827;49.482;7.716;2023-04-03T07:13:42;99839.19;;;5.26;88.52
11542;BME280;5827;49.482;7.716;2023-04-03T07:15:43;99831.56;;;5.08;86.61
11542;BME280;5827;49.482;7.716;2023-04-03T07:17:45;99842.88;;;5.10;87.76
11542;BME280;5827;49.482;7.716;2023-04-03T07:19:46;99838.56;;;5.24;87.81
11542;BME280;5827;49.482;7.716;2023-04-03T07:21:48;99836.09;;;5.22;87.25
11542;BME280;5827;49.482;7.716;2023-04-03T07:23:50;99843.06;;;5.53;86.77
11542;BME280;5827;49.482;7.716;2023-04-03T07:25:52;99855.88;;;5.20;86.41
11542;BME280;5827;49.482;7.716;2023-04-03T07:27:53;99847.63;;;5.44;86.04
11542;BME280;5827;49.482;7.716;2023-04-03T07:29:57;99853.78;;;5.45;84.86
11542;BME280;5827;49.482;7.716;2023-04-03T07:31:58;99851.22;;;5.66;86.99
11542;BME280;5827;49.482;7.716;2023-04-03T07:34:00;99865.44;;;5.73;85.85
11542;BME280;5827;49.482;7.716;2023-04-03T07:36:01;99860.38;;;5.34;84.78
11542;BME280;5827;49.482;7.716;2023-04-03T07:38:03;99862.00;;;5.79;84.58
11542;BME280;5827;49.482;7.716;2023-04-03T07:40:06;99862.38;;;5.91;84.97
11542;BME280;5827;49.482;7.716;2023-04-03T07:42:08;99864.94;;;5.84;84.35
11542;BME280;5827;49.482;7.716;2023-04-03T07:44:10;99866.03;;;5.90;84.19
11542;BME280;5827;49.482;7.716;2023-04-03T07:46:13;99877.53;;;5.61;84.40
11542;BME280;5827;49.482;7.716;2023-04-03T07:48:15;99864.88;;;5.78;82.85
11542;BME280;5827;49.482;7.716;2023-04-03T07:50:17;99871.09;;;5.70;82.71
11542;BME280;5827;49.482;7.716;2023-04-03T07:52:19;99876.50;;;5.77;81.89
11542;BME280;5827;49.482;7.716;2023-04-03T07:54:20;99877.34;;;5.77;83.23
11542;BME280;5827;49.482;7.716;2023-04-03T07:56:22;99872.41;;;5.59;82.45
11542;BME280;5827;49.482;7.716;2023-04-03T07:58:25;99874.38;;;5.72;83.54
11542;BME280;5827;49.482;7.716;2023-04-03T08:00:26;99876.22;;;5.72;83.40
11542;BME280;5827;49.482;7.716;2023-04-03T08:02:29;99874.22;;;5.44;82.83
11542;BME280;5827;49.482;7.716;2023-04-03T08:04:32;99887.41;;;5.52;84.74
11542;BME280;5827;49.482;7.716;2023-04-03T08:06:33;99875.41;;;5.42;83.59
11542;BME280;5827;49.482;7.716;2023-04-03T08:08:36;99870.09;;;5.56;83.66
11542;BME280;5827;49.482;7.716;2023-04-03T08:10:38;99880.44;;;5.81;83.37
11542;BME280;5827;49.482;7.716;2023-04-03T08:12:39;99875.22;;;5.58;82.90
11542;BME280;5827;49.482;7.716;2023-04-03T08:14:41;99879.53;;;6.03;82.49
11542;BME280;5827;49.482;7.716;2023-04-03T08:16:43;99886.78;;;6.09;80.63
11542;BME280;5827;49.482;7.716;2023-04-03T08:18:46;99881.81;;;6.06;80.09
11542;BME280;5827;49.482;7.716;2023-04-03T08:20:47;99886.19;;;6.29;80.55
11542;BME280;5827;49.482;7.716;2023-04-03T08:22:49;99897.00;;;6.27;79.86
11542;BME280;5827;49.482;7.716;2023-04-03T08:24:50;99892.00;;;6.39;78.67
11542;BME280;5827;49.482;7.716;2023-04-03T08:26:52;99884.53;;;6.49;78.84
11542;BME280;5827;49.482;7.716;2023-04-03T08:28:53;99898.53;;;6.36;76.78
11542;BME280;5827;49.482;7.716;2023-04-03T08:30:55;99895.75;;;6.23;75.98
11542;BME280;5827;49.482;7.716;2023-04-03T08:32:57;99887.31;;;6.41;76.89
11542;BME280;5827;49.482;7.716;2023-04-03T08:35:00;99894.16;;;6.50;76.37
11542;BME280;5827;49.482;7.716;2023-04-03T08:37:01;99884.03;;;6.82;77.14
11542;BME280;5827;49.482;7.716;2023-04-03T08:39:03;99887.41;;;7.19;76.57
11542;BME280;5827;49.482;7.716;2023-04-03T08:41:11;99890.41;;;7.37;74.97
11542;BME280;5827;49.482;7.716;2023-04-03T08:43:31;99895.69;;;7.30;72.73
11542;BME280;5827;49.482;7.716;2023-04-03T08:45:42;99893.75;;;7.18;72.91
11542;BME280;5827;49.482;7.716;2023-04-03T08:47:48;99899.47;;;7.14;74.17
11542;BME280;5827;49.482;7.716;2023-04-03T08:49:55;99901.16;;;7.50;72.55
11542;BME280;5827;49.482;7.716;2023-04-03T08:51:59;99906.84;;;7.41;71.81
11542;BME280;5827;49.482;7.716;2023-04-03T08:54:05;99917.50;;;7.12;69.10
11542;BME280;5827;49.482;7.716;2023-04-03T08:56:10;99907.16;;;7.24;70.66
11542;BME280;5827;49.482;7.716;2023-04-03T08:58:15;99914.47;;;7.16;70.39
11542;BME280;5827;49.482;7.716;2023-04-03T09:00:19;99914.38;;;7.30;69.41
11542;BME280;5827;49.482;7.716;2023-04-03T09:02:25;99914.47;;;7.16;70.63
11542;BME280;5827;49.482;7.716;2023-04-03T09:04:30;99908.06;;;6.88;70.81
11542;BME280;5827;49.482;7.716;2023-04-03T09:06:33;99911.94;;;6.65;72.17
11542;BME280;5827;49.482;7.716;2023-04-03T09:08:41;99904.03;;;6.93;72.47
11542;BME280;5827;49.482;7.716;2023-04-03T09:10:44;99904.88;;;7.00;71.81
11542;BME280;5827;49.482;7.716;2023-04-03T09:12:49;99903.50;;;7.04;72.80
11542;BME280;5827;49.482;7.716;2023-04-03T09:14:57;99909.19;;;7.01;71.31
11542;BME280;5827;49.482;7.716;2023-04-03T09:17:04;99906.31;;;7.24;68.60
11542;BME280;5827;49.482;7.716;2023-04-03T09:19:15;99916.63;;;7.61;67.92
11542;BME280;5827;49.482;7.716;2023-04-03T09:21:25;99914.59;;;7.35;67.60
11542;BME280;5827;49.482;7.716;2023-04-03T09:23:30;99905.16;;;7.68;68.55
11542;BME280;5827;49.482;7.716;2023-04-03T09:25:36;99909.84;;;7.59;69.47
11542;BME280;5827;49.482;7.716;2023-04-03T09:27:38;99917.81;;;7.24;67.60
11542;BME280;5827;49.482;7.716;2023-04-03T09:29:42;99919.97;;;7.14;65.97
11542;BME280;5827;49.482;7.716;2023-04-03T09:31:48;99924.22;;;7.08;67.34
11542;BME280;5827;49.482;7.716;2023-04-03T09:33:52;99927.72;;;7.09;66.31
11542;BME280;5827;49.482;7.716;2023-04-03T09:35:54;99917.72;;;6.90;67.07
11542;BME280;5827;49.482;7.716;2023-04-03T09:37:59;99922.31;;;6.59;65.55
11542;BME280;5827;49.482;7.716;2023-04-03T09:40:03;99922.09;;;6.76;65.69
11542;BME280;5827;49.482;7.716;2023-04-03T09:42:16;99926.19;;;6.57;63.23
11542;BME280;5827;49.482;7.716;2023-04-03T09:44:21;99922.31;;;6.38;64.28
11542;BME280;5827;49.482;7.716;2023-04-03T09:46:29;99919.78;;;6.73;64.63
11542;BME280;5827;49.482;7.716;2023-04-03T09:48:31;99922.09;;;6.76;64.39
11542;BME280;5827;49.482;7.716;2023-04-03T09:50:32;99921.94;;;6.62;63.45
11542;BME280;5827;49.482;7.716;2023-04-03T09:52:34;99931.78;;;6.62;63.15
11542;BME280;5827;49.482;7.716;2023-04-03T09:54:37;99912.47;;;6.75;64.89
11542;BME280;5827;49.482;7.716;2023-04-03T09:56:41;99923.84;;;7.11;65.15
11542;BME280;5827;49.482;7.716;2023-04-03T09:59:08;99912.50;;;7.03;63.41
11542;BME280;5827;49.482;7.716;2023-04-03T10:01:22;99922.22;;;7.10;64.04
11542;BME280;5827;49.482;7.716;2023-04-03T10:03:28;99922.00;;;7.12;64.43
11542;BME280;5827;49.482;7.716;2023-04-03T10:05:33;99921.44;;;7.45;64.06
11542;BME280;5827;49.482;7.716;2023-04-03T10:07:36;99939.72;;;7.20;61.74
11542;BME280;5827;49.482;7.716;2023-04-03T10:09:38;99929.19;;;7.39;58.50
11542;BME280;5827;49.482;7.716;2023-04-03T10:11:57;99935.44;;;7.53;57.86
11542;BME280;5827;49.482;7.716;2023-04-03T10:14:02;99934.53;;;7.39;56.85
11542;BME280;5827;49.482;7.716;2023-04-03T10:16:09;99936.81;;;7.71;57.41
11542;BME280;5827;49.482;7.716;2023-04-03T10:18:28;99937.97;;;7.96;57.70
11542;BME280;5827;49.482;7.716;2023-04-03T10:20:34;99935.66;;;7.86;58.17
11542;BME280;5827;49.482;7.716;2023-04-03T10:22:43;99939.31;;;7.51;57.26
11542;BME280;5827;49.482;7.716;2023-04-03T10:24:56;99937.13;;;7.33;57.69
11542;BME280;5827;49.482;7.716;2023-04-03T10:27:05;99941.41;;;7.83;56.57
11542;BME280;5827;49.482;7.716;2023-04-03T10:29:18;99939.28;;;7.79;54.58
11542;BME280;5827;49.482;7.716;2023-04-03T10:31:25;99932.31;;;8.19;55.71
11542;BME280;5827;49.482;7.716;2023-04-03T10:33:39;99934.09;;;8.05;54.70
11542;BME280;5827;49.482;7.716;2023-04-03T10:35:45;99931.31;;;8.81;56.13
11542;BME280;5827;49.482;7.716;2023-04-03T10:38:01;99932.28;;;8.54;56.70
11542;BME280;5827;49.482;7.716;2023-04-03T10:40:14;99942.91;;;8.40;54.67
11542;BME280;5827;49.482;7.716;2023-04-03T10:42:25;99955.94;;;8.15;52.67
11542;BME280;5827;49.482;7.716;2023-04-03T10:44:37;99940.53;;;7.48;55.92
11542;BME280;5827;49.482;7.716;2023-04-03T10:46:44;99931.78;;;7.89;56.13
11542;BME280;5827;49.482;7.716;2023-04-03T10:49:01;99937.50;;;7.86;56.39
11542;BME280;5827;49.482;7.716;2023-04-03T10:51:16;99935.41;;;8.16;57.92
11542;BME280;5827;49.482;7.716;2023-04-03T10:53:27;99920.16;;;8.10;58.39
11542;BME280;5827;49.482;7.716;2023-04-03T10:55:37;99937.44;;;8.14;55.74
11542;BME280;5827;49.482;7.716;2023-04-03T10:57:40;99932.44;;;8.46;54.94
11542;BME280;5827;49.482;7.716;2023-04-03T10:59:47;99951.03;;;8.26;55.45
11542;BME280;5827;49.482;7.716;2023-04-03T11:01:53;99948.00;;;7.94;54.88
11542;BME280;5827;49.482;7.716;2023-04-03T11:03:58;99941.41;;;8.25;53.85
11542;BME280;5827;49.482;7.716;2023-04-03T11:06:01;99946.69;;;8.11;54.17
11542;BME280;5827;49.482;7.716;2023-04-03T11:08:09;99950.72;;;8.01;53.56
11542;BME280;5827;49.482;7.716;2023-04-03T11:10:15;99946.31;;;7.86;54.50
11542;BME280;5827;49.482;7.716;2023-04-03T11:12:24;99955.56;;;7.84;53.29